createdAt,value
2023-01-07T00:02:26.069Z,8.4
2023-01-07T00:08:02.485Z,8.4
2023-01-07T00:13:38.450Z,8.4
2023-01-07T00:19:14.826Z,8.3
2023-01-07T00:24:50.008Z,8.2
2023-01-07T00:30:25.687Z,8.2
2023-01-07T00:36:02.026Z,8.1
2023-01-07T00:41:37.161Z,8.1
2023-01-07T00:47:13.959Z,8
2023-01-07T00:52:51.557Z,8
2023-01-07T00:58:26.954Z,8
2023-01-07T01:04:03.065Z,8.1
2023-01-07T01:09:38.863Z,8.1
2023-01-07T01:15:14.539Z,8
2023-01-07T01:20:50.477Z,8
2023-01-07T01:26:29.880Z,8.1
2023-01-07T01:32:05.506Z,8
2023-01-07T01:37:41.191Z,8
2023-01-07T01:43:17.690Z,8
2023-01-07T01:48:53.836Z,8
2023-01-07T01:54:30.880Z,7.9
2023-01-07T02:00:07.863Z,7.9
2023-01-07T02:05:42.883Z,7.9
2023-01-07T02:11:19.038Z,7.9
2023-01-07T02:16:55.394Z,7.8
2023-01-07T02:22:30.811Z,7.8
2023-01-07T02:28:06.753Z,7.8
2023-01-07T02:33:44.235Z,7.7
2023-01-07T02:39:19.319Z,7.6
2023-01-07T02:44:55.565Z,7.6
2023-01-07T02:50:32.128Z,7.7
2023-01-07T02:56:08.411Z,7.7
2023-01-07T03:01:44.349Z,7.7
2023-01-07T03:07:22.406Z,7.7
2023-01-07T03:12:57.799Z,7.7
2023-01-07T03:18:34.303Z,7.8
2023-01-07T03:24:10.816Z,7.9
2023-01-07T03:29:45.861Z,7.9
2023-01-07T03:35:21.274Z,7.9
2023-01-07T03:40:58.863Z,8.1
2023-01-07T03:46:34.020Z,7.9
2023-01-07T03:52:09.679Z,7.9
2023-01-07T03:57:45.723Z,7.9
2023-01-07T04:03:20.978Z,7.9
2023-01-07T04:08:56.326Z,8
2023-01-07T04:14:32.956Z,8.1
2023-01-07T04:20:08.614Z,8.2
2023-01-07T04:25:44.161Z,8.3
2023-01-07T04:31:21.349Z,8.1
2023-01-07T04:36:57.678Z,8
2023-01-07T04:42:33.794Z,7.9
2023-01-07T04:48:09.325Z,7.7
2023-01-07T04:53:44.738Z,7.7
2023-01-07T04:59:20.420Z,7.7
2023-01-07T05:04:56.228Z,7.7
2023-01-07T05:10:31.025Z,7.8
2023-01-07T05:16:06.798Z,8
2023-01-07T05:21:43.144Z,8
2023-01-07T05:27:18.051Z,8.2
2023-01-07T05:32:53.744Z,8.3
2023-01-07T05:38:29.998Z,8.5
2023-01-07T05:44:05.845Z,8.5
2023-01-07T05:49:41.698Z,8.4
2023-01-07T05:55:18.956Z,8.6
2023-01-07T06:00:55.111Z,8.6
2023-01-07T06:06:31.747Z,8.5
2023-01-07T06:12:07.747Z,8.4
2023-01-07T06:17:42.706Z,8.3
2023-01-07T06:23:19.322Z,8.1
2023-01-07T06:28:55.384Z,8
2023-01-07T06:34:30.655Z,7.9
2023-01-07T06:40:06.177Z,7.8
2023-01-07T06:45:42.363Z,7.8
2023-01-07T06:51:17.366Z,7.6
2023-01-07T06:56:53.725Z,7.6
2023-01-07T07:02:30.965Z,7.6
2023-01-07T07:08:09.735Z,7.6
2023-01-07T07:13:46.866Z,7.5
2023-01-07T07:19:24.004Z,7.5
2023-01-07T07:25:00.173Z,6
2023-01-07T07:30:46.038Z,5.3
2023-01-07T07:36:25.464Z,5.3
2023-01-07T07:42:01.361Z,5.6
2023-01-07T07:47:44.400Z,6
2023-01-07T07:53:51.900Z,5.3
2023-01-07T07:59:27.674Z,5.7
2023-01-07T08:05:06.284Z,6.2
2023-01-07T08:10:45.152Z,5.6
2023-01-07T08:16:30.071Z,6
2023-01-07T08:22:16.821Z,6.8
2023-01-07T08:28:03.947Z,6.8
2023-01-07T08:33:38.725Z,6.6
2023-01-07T08:39:17.029Z,6.6
2023-01-07T08:44:54.107Z,6.7
2023-01-07T08:50:29.426Z,7
2023-01-07T08:56:14.069Z,7.6
2023-01-07T09:01:50.271Z,8.5
2023-01-07T09:07:28.606Z,9.2
2023-01-07T09:13:05.864Z,9
2023-01-07T09:18:41.600Z,9.9
2023-01-07T09:24:19.974Z,10.5
2023-01-07T09:30:59.984Z,11
2023-01-07T09:36:36.268Z,10
2023-01-07T09:42:36.963Z,9.8
2023-01-07T09:48:13.260Z,10.8
2023-01-07T09:53:50.905Z,11.4
2023-01-07T09:59:26.159Z,11.1
2023-01-07T10:05:09.106Z,11.2
2023-01-07T10:10:45.355Z,11.1
2023-01-07T10:16:21.716Z,12.6
2023-01-07T10:21:58.550Z,13.6
2023-01-07T10:27:34.960Z,14
2023-01-07T10:33:18.899Z,14.7
2023-01-07T10:38:54.779Z,14.8
2023-01-07T10:44:58.196Z,14.8
2023-01-07T10:51:04.485Z,14.2
2023-01-07T10:56:45.203Z,14.3
2023-01-07T11:02:21.778Z,14.2
2023-01-07T11:07:59.586Z,14.1
2023-01-07T11:13:38.479Z,14.3
2023-01-07T11:19:25.595Z,13.9
2023-01-07T11:25:00.715Z,14
2023-01-07T11:30:36.507Z,14.2
2023-01-07T11:36:12.280Z,13.9
2023-01-07T11:41:57.818Z,13.8
2023-01-07T11:48:16.887Z,13.3
2023-01-07T11:53:51.358Z,13.8
2023-01-07T11:59:38.472Z,14.6
2023-01-07T12:05:22.944Z,14.6
2023-01-07T12:12:01.310Z,13.9
2023-01-07T12:17:45.908Z,13.8
2023-01-07T12:23:22.035Z,13.8
2023-01-07T12:28:58.140Z,13.4
2023-01-07T12:34:36.111Z,13
2023-01-07T12:40:20.609Z,13
2023-01-07T12:45:57.175Z,12.8
2023-01-07T12:51:34.503Z,12.9
2023-01-07T12:57:13.201Z,12.6
2023-01-07T13:02:49.569Z,12.7
2023-01-07T13:08:41.170Z,12.6
2023-01-07T13:14:22.614Z,12.6
2023-01-07T13:20:08.323Z,13
2023-01-07T13:25:43.243Z,13.5
2023-01-07T13:31:19.055Z,14
2023-01-07T13:37:02.110Z,15
2023-01-07T13:42:41.328Z,15.1
2023-01-07T13:48:16.697Z,14.8
2023-01-07T13:53:56.096Z,14.7
2023-01-07T13:59:32.785Z,14.6
2023-01-07T14:05:09.076Z,14.6
2023-01-07T14:10:45.616Z,14.5
2023-01-07T14:16:24.341Z,14.5
2023-01-07T14:22:05.232Z,14.7
2023-01-07T14:27:42.173Z,15.2
2023-01-07T14:33:17.800Z,15.2
2023-01-07T14:38:53.587Z,15.1
2023-01-07T14:44:34.156Z,15.1
2023-01-07T14:50:23.727Z,14.5
2023-01-07T14:55:59.843Z,14.2
2023-01-07T15:01:36.263Z,14.2
2023-01-07T15:07:13.435Z,14.3
2023-01-07T15:12:55.886Z,14.2
2023-01-07T15:18:32.605Z,14
2023-01-07T15:24:07.928Z,14.3
2023-01-07T15:29:53.604Z,14
2023-01-07T15:35:29.338Z,13.8
2023-01-07T15:41:04.584Z,13.7
2023-01-07T15:46:41.546Z,13.5
2023-01-07T15:52:18.367Z,13.4
2023-01-07T15:58:26.213Z,13.2
2023-01-07T16:04:02.393Z,13.1
2023-01-07T16:09:50.021Z,13.3
2023-01-07T16:15:25.491Z,12.7
2023-01-07T16:21:06.499Z,12.4
2023-01-07T16:26:50.256Z,12.4
2023-01-07T16:32:25.364Z,12.6
2023-01-07T16:38:01.776Z,12.2
2023-01-07T16:43:42.823Z,12
2023-01-07T16:49:17.799Z,11.8
2023-01-07T16:54:53.663Z,11.9
2023-01-07T17:00:41.416Z,11.7
2023-01-07T17:06:18.887Z,11.6
2023-01-07T17:11:57.437Z,11.6
2023-01-07T17:17:33.756Z,11.5
2023-01-07T17:23:08.750Z,11.5
2023-01-07T17:28:48.181Z,11.9
2023-01-07T17:35:11.552Z,12
2023-01-07T17:40:50.778Z,11.9
2023-01-07T17:46:30.084Z,11.6
2023-01-07T17:52:06.455Z,11.4
2023-01-07T17:57:42.723Z,11.6
2023-01-07T18:03:20.305Z,11.9
2023-01-07T18:08:56.995Z,11.8
2023-01-07T18:15:23.300Z,12.3
2023-01-07T18:20:59.985Z,12.4
2023-01-07T18:26:46.231Z,11.8
2023-01-07T18:32:21.498Z,11.6
2023-01-07T18:37:58.385Z,11.4
2023-01-07T18:43:55.364Z,11.4
2023-01-07T18:49:58.633Z,11.2
2023-01-07T18:56:01.710Z,11.7
2023-01-07T19:02:16.276Z,11.8
2023-01-07T19:08:09.216Z,11.4
2023-01-07T19:13:58.103Z,11.9
2023-01-07T19:19:47.262Z,12.1
2023-01-07T19:25:40.067Z,12.2
2023-01-07T19:31:36.644Z,12.2
2023-01-07T19:37:13.045Z,12.3
2023-01-07T19:42:57.395Z,12.3
2023-01-07T19:48:32.882Z,12.3
2023-01-07T19:54:09.065Z,12.4
2023-01-07T19:59:45.054Z,12.5
2023-01-07T20:05:30.810Z,12.6
2023-01-07T20:11:34.424Z,12.5
2023-01-07T20:17:11.816Z,12.4
2023-01-07T20:23:13.685Z,12.4
2023-01-07T20:28:59.392Z,12.4
2023-01-07T20:34:37.148Z,12.4
2023-01-07T20:40:19.706Z,12.4
2023-01-07T20:45:55.566Z,12.3
2023-01-07T20:51:33.312Z,12.3
2023-01-07T20:57:09.565Z,12.3
2023-01-07T21:02:46.296Z,12.3
2023-01-07T21:08:22.083Z,12.3
2023-01-07T21:13:57.589Z,12.3
2023-01-07T21:19:37.752Z,12.3
2023-01-07T21:25:13.006Z,12.3
2023-01-07T21:30:57.032Z,12.4
2023-01-07T21:38:20.206Z,12.4
2023-01-07T21:43:56.546Z,12.3
2023-01-07T21:49:35.267Z,12.3
2023-01-07T21:55:11.259Z,12.3
2023-01-07T22:00:51.135Z,12.3
2023-01-07T22:06:29.589Z,12.3
2023-01-07T22:12:06.000Z,12.3
2023-01-07T22:17:41.031Z,12.3
2023-01-07T22:23:18.089Z,12.3
2023-01-07T22:29:02.560Z,12.3
2023-01-07T22:34:38.624Z,12.3
2023-01-07T22:40:28.672Z,12.3
2023-01-07T22:46:05.087Z,12.3
2023-01-07T22:52:49.881Z,12.2
2023-01-07T22:58:38.385Z,12.2
2023-01-07T23:04:14.662Z,12.2
2023-01-07T23:09:51.613Z,12.2
2023-01-07T23:15:28.400Z,12.2
2023-01-07T23:21:04.103Z,12.2
2023-01-07T23:26:40.015Z,12.1
2023-01-07T23:32:37.157Z,12.1
2023-01-07T23:38:12.142Z,12.1
2023-01-07T23:43:49.588Z,12.1
2023-01-07T23:49:41.660Z,12.1
2023-01-07T23:55:44.235Z,12.1
